createdAt,value
2018-05-31T00:00:41.850Z,9.03
2018-05-31T00:03:10.265Z,8.50
2018-05-31T00:05:38.697Z,9.17
2018-05-31T00:08:07.106Z,10.40
2018-05-31T00:10:35.530Z,9.60
2018-05-31T00:13:03.923Z,9.03
2018-05-31T00:15:33.108Z,9.40
2018-05-31T00:18:01.540Z,8.63
2018-05-31T00:20:29.927Z,9.90
2018-05-31T00:22:58.344Z,10.40
2018-05-31T00:25:26.736Z,9.50
2018-05-31T00:27:55.221Z,9.10
2018-05-31T00:30:23.613Z,10.40
2018-05-31T00:32:52.010Z,10.10
2018-05-31T00:35:21.209Z,9.93
2018-05-31T00:37:49.631Z,9.80
2018-05-31T00:40:18.016Z,9.60
2018-05-31T00:42:46.445Z,10.77
2018-05-31T00:45:14.898Z,9.47
2018-05-31T00:47:43.399Z,9.27
2018-05-31T00:50:11.790Z,9.93
2018-05-31T00:52:40.174Z,9.67
2018-05-31T00:55:08.523Z,9.00
2018-05-31T00:57:36.908Z,9.60
2018-05-31T01:00:05.303Z,8.93
2018-05-31T01:02:33.705Z,10.00
2018-05-31T01:05:02.116Z,10.30
2018-05-31T01:07:31.263Z,10.93
2018-05-31T01:09:59.649Z,9.50
2018-05-31T01:12:28.041Z,10.67
2018-05-31T01:14:56.424Z,10.50
2018-05-31T01:17:24.800Z,9.80
2018-05-31T01:19:53.230Z,11.27
2018-05-31T01:22:21.711Z,10.23
2018-05-31T01:24:50.126Z,11.13
2018-05-31T01:27:18.562Z,11.27
2018-05-31T01:29:46.960Z,10.53
2018-05-31T01:32:15.371Z,10.60
2018-05-31T01:34:44.607Z,11.07
2018-05-31T01:37:13.032Z,11.40
2018-05-31T01:39:41.423Z,10.47
2018-05-31T01:42:09.821Z,11.63
2018-05-31T01:44:38.982Z,10.17
2018-05-31T01:47:07.402Z,11.47
2018-05-31T01:49:36.562Z,10.83
2018-05-31T01:52:04.973Z,9.77
2018-05-31T01:54:33.354Z,10.00
2018-05-31T01:57:01.775Z,9.90
2018-05-31T01:59:30.224Z,10.70
2018-05-31T02:01:58.625Z,9.60
2018-05-31T02:04:27.769Z,11.47
2018-05-31T02:06:56.180Z,13.23
2018-05-31T02:09:24.674Z,12.00
2018-05-31T02:11:53.062Z,12.50
2018-05-31T02:14:21.485Z,12.07
2018-05-31T02:16:49.874Z,11.67
2018-05-31T02:19:18.330Z,11.13
2018-05-31T02:21:47.725Z,11.63
2018-05-31T02:24:16.196Z,9.90
2018-05-31T02:26:44.604Z,11.83
2018-05-31T02:29:13.771Z,11.30
2018-05-31T02:31:42.190Z,10.63
2018-05-31T02:34:11.362Z,10.70
2018-05-31T02:36:39.842Z,10.43
2018-05-31T02:39:08.216Z,12.10
2018-05-31T02:41:36.664Z,11.10
2018-05-31T02:44:05.072Z,9.60
2018-05-31T02:46:33.570Z,11.13
2018-05-31T02:49:01.962Z,10.63
2018-05-31T02:51:30.386Z,10.50
2018-05-31T02:53:59.573Z,9.40
2018-05-31T02:56:28.731Z,9.40
2018-05-31T02:58:57.170Z,10.63
2018-05-31T03:01:26.330Z,9.43
2018-05-31T03:03:54.708Z,10.30
2018-05-31T03:06:23.094Z,8.60
2018-05-31T03:08:51.495Z,9.23
2018-05-31T03:11:20.011Z,7.80
2018-05-31T03:13:49.190Z,7.97
2018-05-31T03:16:17.679Z,7.70
2018-05-31T03:18:46.073Z,9.20
2018-05-31T03:21:15.303Z,7.53
2018-05-31T03:23:43.689Z,7.60
2018-05-31T03:26:12.074Z,8.40
2018-05-31T03:28:40.488Z,8.30
2018-05-31T03:31:08.876Z,7.60
2018-05-31T03:33:37.270Z,8.50
2018-05-31T03:36:05.763Z,7.63
2018-05-31T03:38:34.162Z,7.90
2018-05-31T03:41:03.321Z,7.70
2018-05-31T03:43:31.713Z,7.07
2018-05-31T03:46:00.105Z,7.20
2018-05-31T03:48:28.498Z,7.70
2018-05-31T03:50:56.994Z,7.60
2018-05-31T03:53:26.159Z,7.30
2018-05-31T03:55:54.687Z,7.43
2018-05-31T03:58:23.873Z,7.30
2018-05-31T04:00:52.270Z,7.00
2018-05-31T04:03:21.410Z,7.57
2018-05-31T04:05:49.829Z,6.33
2018-05-31T04:08:18.241Z,6.97
2018-05-31T04:10:47.406Z,6.67
2018-05-31T04:13:16.577Z,6.13
2018-05-31T04:15:45.006Z,6.60
2018-05-31T04:18:13.402Z,7.07
2018-05-31T04:20:42.569Z,6.57
2018-05-31T04:23:10.971Z,6.30
2018-05-31T04:25:39.410Z,6.90
2018-05-31T04:28:07.770Z,6.00
2018-05-31T04:30:36.174Z,8.70
2018-05-31T04:33:04.557Z,8.13
2018-05-31T04:35:32.966Z,5.93
2018-05-31T04:38:01.370Z,5.90
2018-05-31T04:40:29.807Z,6.50
2018-05-31T04:42:58.223Z,6.60
2018-05-31T04:45:26.629Z,6.20
2018-05-31T04:47:55.117Z,6.33
2018-05-31T04:50:23.510Z,6.00
2018-05-31T04:52:52.668Z,5.30
2018-05-31T04:55:21.230Z,5.80
2018-05-31T04:57:49.664Z,5.40
2018-05-31T05:00:18.048Z,5.30
2018-05-31T05:02:46.470Z,5.23
2018-05-31T05:05:14.882Z,5.93
2018-05-31T05:07:43.269Z,4.97
2018-05-31T05:10:11.731Z,5.30
2018-05-31T05:12:40.141Z,5.00
2018-05-31T05:15:08.551Z,5.17
2018-05-31T05:17:36.946Z,5.70
2018-05-31T05:20:05.331Z,5.50
2018-05-31T05:22:33.750Z,4.97
2018-05-31T05:25:02.151Z,5.93
2018-05-31T05:27:30.541Z,6.90
2018-05-31T05:29:58.948Z,6.40
2018-05-31T05:32:27.365Z,6.53
2018-05-31T05:34:56.524Z,5.70
2018-05-31T05:37:24.916Z,5.97
2018-05-31T05:39:53.564Z,6.10
2018-05-31T05:42:21.956Z,6.93
2018-05-31T05:44:50.435Z,5.73
2018-05-31T05:47:18.851Z,6.70
2018-05-31T05:49:48.809Z,6.17
2018-05-31T05:52:17.961Z,6.10
2018-05-31T05:54:46.340Z,5.70
2018-05-31T05:57:14.733Z,5.10
2018-05-31T05:59:43.101Z,5.13
2018-05-31T06:02:11.504Z,5.00
2018-05-31T06:04:39.954Z,5.40
2018-05-31T06:07:08.434Z,4.47
2018-05-31T06:09:36.834Z,4.50
2018-05-31T06:12:05.316Z,4.60
2018-05-31T06:14:33.702Z,4.57
2018-05-31T06:17:02.081Z,4.57
2018-05-31T06:19:30.496Z,4.07
2018-05-31T06:21:58.974Z,3.80
2018-05-31T06:24:27.366Z,4.27
2018-05-31T06:26:55.759Z,4.43
2018-05-31T06:29:24.290Z,3.93
2018-05-31T06:31:52.673Z,3.90
2018-05-31T06:34:21.114Z,3.83
2018-05-31T06:36:49.489Z,4.83
2018-05-31T06:39:17.873Z,4.40
2018-05-31T06:41:46.283Z,4.83
2018-05-31T06:44:15.429Z,3.83
2018-05-31T06:46:43.824Z,4.77
2018-05-31T06:49:12.210Z,4.37
2018-05-31T06:51:40.631Z,3.77
2018-05-31T06:54:09.773Z,4.17
2018-05-31T06:56:38.169Z,4.40
2018-05-31T06:59:06.590Z,3.70
2018-05-31T07:01:35.784Z,4.00
2018-05-31T07:04:04.179Z,4.23
2018-05-31T07:06:33.340Z,4.90
2018-05-31T07:09:01.734Z,3.73
2018-05-31T07:11:30.165Z,5.00
2018-05-31T07:13:58.554Z,5.33
2018-05-31T07:16:27.007Z,5.10
2018-05-31T07:18:55.409Z,4.87
2018-05-31T07:21:24.557Z,4.80
2018-05-31T07:23:53.741Z,4.33
2018-05-31T07:26:22.135Z,3.80
2018-05-31T07:28:50.546Z,4.63
2018-05-31T07:31:18.976Z,5.77
2018-05-31T07:33:47.376Z,6.30
2018-05-31T07:36:15.875Z,5.93
2018-05-31T07:38:45.021Z,5.60
2018-05-31T07:41:13.388Z,6.03
2018-05-31T07:43:41.816Z,6.03
2018-05-31T07:46:11.029Z,5.13
2018-05-31T07:48:39.412Z,5.40
2018-05-31T07:51:07.791Z,5.03
2018-05-31T07:53:36.232Z,5.37
2018-05-31T07:56:04.605Z,4.30
2018-05-31T07:58:33.005Z,3.30
2018-05-31T08:01:02.179Z,3.50
2018-05-31T08:03:30.550Z,3.53
2018-05-31T08:05:58.948Z,2.60
2018-05-31T08:08:27.366Z,3.47
2018-05-31T08:10:56.525Z,3.40
2018-05-31T08:13:25.016Z,4.20
2018-05-31T08:15:53.423Z,3.37
2018-05-31T08:18:21.872Z,3.40
2018-05-31T08:20:50.263Z,2.60
2018-05-31T08:23:18.650Z,2.57
2018-05-31T08:25:47.056Z,2.60
2018-05-31T08:28:15.461Z,3.13
2018-05-31T08:30:44.651Z,3.37
2018-05-31T08:33:13.053Z,3.63
2018-05-31T08:35:42.270Z,2.90
2018-05-31T08:38:10.698Z,3.27
2018-05-31T08:40:39.114Z,2.77
2018-05-31T08:43:08.318Z,3.30
2018-05-31T08:45:37.457Z,3.50
2018-05-31T08:48:05.854Z,3.00
2018-05-31T08:50:34.250Z,2.83
2018-05-31T08:53:02.670Z,3.53
2018-05-31T08:55:31.874Z,3.20
2018-05-31T08:58:01.042Z,3.17
2018-05-31T09:00:29.528Z,3.20
2018-05-31T09:02:57.926Z,2.90
2018-05-31T09:05:26.340Z,3.10
2018-05-31T09:07:56.119Z,3.30
2018-05-31T09:10:24.546Z,2.80
2018-05-31T09:12:53.025Z,3.03
2018-05-31T09:15:21.428Z,3.20
2018-05-31T09:17:49.846Z,3.60
2018-05-31T09:20:18.250Z,3.93
2018-05-31T09:22:46.670Z,3.93
2018-05-31T09:25:15.068Z,2.57
2018-05-31T09:27:43.555Z,3.00
2018-05-31T09:30:11.978Z,3.13
2018-05-31T09:32:40.365Z,2.97
2018-05-31T09:35:08.789Z,3.33
2018-05-31T09:37:37.186Z,3.07
2018-05-31T09:40:06.528Z,3.10
2018-05-31T09:42:35.693Z,3.67
2018-05-31T09:45:04.106Z,3.40
2018-05-31T09:47:32.542Z,3.07
2018-05-31T09:50:00.963Z,3.07
2018-05-31T09:52:29.410Z,2.93
2018-05-31T09:54:57.818Z,2.40
2018-05-31T09:57:26.264Z,2.70
2018-05-31T09:59:54.766Z,3.50
2018-05-31T10:02:23.263Z,2.70
2018-05-31T10:04:51.670Z,3.57
2018-05-31T10:07:20.904Z,3.10
2018-05-31T10:09:49.292Z,3.43
2018-05-31T10:12:17.676Z,2.50
2018-05-31T10:14:46.836Z,3.00
2018-05-31T10:17:15.313Z,2.87
2018-05-31T10:19:43.696Z,3.00
2018-05-31T10:22:12.113Z,3.20
2018-05-31T10:24:40.508Z,2.60
2018-05-31T10:27:08.937Z,3.60
2018-05-31T10:29:37.346Z,3.00
2018-05-31T10:32:05.778Z,3.10
2018-05-31T10:34:34.976Z,3.40
2018-05-31T10:37:04.249Z,3.80
2018-05-31T10:39:32.696Z,2.73
2018-05-31T10:42:01.032Z,2.97
2018-05-31T10:44:29.513Z,3.13
2018-05-31T10:46:57.996Z,2.27
2018-05-31T10:49:26.392Z,2.63
2018-05-31T10:51:55.603Z,2.63
2018-05-31T10:54:24.754Z,2.70
2018-05-31T10:56:53.173Z,2.90
2018-05-31T10:59:21.591Z,2.60
2018-05-31T11:01:50.765Z,2.93
2018-05-31T11:04:19.929Z,3.10
2018-05-31T11:06:48.328Z,3.57
2018-05-31T11:09:16.705Z,3.30
2018-05-31T11:11:45.877Z,3.80
2018-05-31T11:14:14.274Z,3.43
2018-05-31T11:16:42.661Z,3.03
2018-05-31T11:19:11.069Z,3.33
2018-05-31T11:21:39.516Z,3.03
2018-05-31T11:24:08.622Z,2.70
2018-05-31T11:26:37.134Z,3.17
2018-05-31T11:29:05.573Z,2.90
2018-05-31T11:31:33.956Z,2.30
2018-05-31T11:34:02.367Z,3.30
2018-05-31T11:36:30.771Z,2.77
2018-05-31T11:38:59.201Z,2.50
2018-05-31T11:41:27.595Z,2.80
2018-05-31T11:43:56.018Z,2.80
2018-05-31T11:46:24.445Z,2.90
2018-05-31T11:48:53.713Z,3.07
2018-05-31T11:51:22.145Z,2.90
2018-05-31T11:53:50.639Z,3.60
2018-05-31T11:56:19.185Z,3.00
2018-05-31T11:58:47.618Z,2.40
2018-05-31T12:01:16.055Z,2.77
2018-05-31T12:03:45.312Z,3.37
2018-05-31T12:06:13.790Z,3.30
2018-05-31T12:08:44.664Z,2.77
2018-05-31T12:11:13.859Z,3.27
2018-05-31T12:13:42.268Z,3.83
2018-05-31T12:16:11.445Z,3.80
2018-05-31T12:18:39.862Z,4.20
2018-05-31T12:21:09.118Z,3.93
2018-05-31T12:23:37.532Z,4.13
2018-05-31T12:26:05.924Z,3.70
2018-05-31T12:28:35.059Z,4.20
2018-05-31T12:31:03.487Z,4.50
2018-05-31T12:33:31.898Z,2.87
2018-05-31T12:36:01.246Z,3.20
2018-05-31T12:38:29.861Z,3.50
2018-05-31T12:40:58.224Z,3.40
2018-05-31T12:43:26.684Z,3.50
2018-05-31T12:45:55.085Z,3.33
2018-05-31T12:48:23.477Z,4.10
2018-05-31T12:50:51.901Z,3.53
2018-05-31T12:53:21.067Z,3.40
2018-05-31T12:55:49.447Z,3.40
2018-05-31T12:58:17.847Z,3.80
2018-05-31T13:00:46.236Z,3.27
2018-05-31T13:03:14.617Z,3.73
2018-05-31T13:05:44.719Z,3.13
2018-05-31T13:08:13.078Z,3.40
2018-05-31T13:10:41.650Z,4.30
2018-05-31T13:13:10.451Z,3.70
2018-05-31T13:15:38.898Z,3.17
2018-05-31T13:18:07.342Z,3.40
2018-05-31T13:20:35.791Z,3.07
2018-05-31T13:23:04.606Z,2.90
2018-05-31T13:25:33.044Z,3.17
2018-05-31T13:28:01.454Z,2.90
2018-05-31T13:30:29.844Z,2.80
2018-05-31T13:32:58.230Z,3.40
2018-05-31T13:35:27.398Z,2.97
2018-05-31T13:37:56.576Z,2.80
2018-05-31T13:40:24.982Z,3.53
2018-05-31T13:42:53.397Z,2.93
2018-05-31T13:45:21.786Z,3.10
2018-05-31T13:47:50.277Z,2.60
2018-05-31T13:50:18.649Z,3.73
2018-05-31T13:52:47.098Z,2.83
2018-05-31T13:55:15.501Z,3.77
2018-05-31T13:57:44.672Z,4.00
2018-05-31T14:00:13.083Z,2.63
2018-05-31T14:02:42.221Z,3.53
2018-05-31T14:05:10.657Z,3.70
2018-05-31T14:07:39.069Z,3.20
2018-05-31T14:10:07.517Z,3.70
2018-05-31T14:12:37.410Z,3.40
2018-05-31T14:15:06.172Z,3.07
2018-05-31T14:17:34.627Z,3.43
2018-05-31T14:20:03.807Z,4.40
2018-05-31T14:22:32.242Z,3.93
2018-05-31T14:25:00.651Z,2.77
2018-05-31T14:27:29.048Z,5.40
2018-05-31T14:29:57.393Z,3.60
2018-05-31T14:32:25.803Z,3.60
2018-05-31T14:34:54.230Z,3.97
2018-05-31T14:37:23.386Z,3.40
2018-05-31T14:39:51.806Z,3.50
2018-05-31T14:42:20.223Z,3.30
2018-05-31T14:44:48.681Z,3.87
2018-05-31T14:47:17.910Z,3.60
2018-05-31T14:49:46.275Z,3.70
2018-05-31T14:52:15.484Z,4.20
2018-05-31T14:54:44.653Z,3.30
2018-05-31T14:57:13.042Z,3.77
2018-05-31T14:59:41.491Z,3.90
2018-05-31T15:02:09.873Z,3.33
2018-05-31T15:04:38.276Z,3.53
2018-05-31T15:07:06.661Z,3.70
2018-05-31T15:09:35.078Z,4.00
2018-05-31T15:12:03.480Z,4.13
2018-05-31T15:14:31.847Z,3.87
2018-05-31T15:17:01.033Z,3.33
2018-05-31T15:19:29.421Z,3.87
2018-05-31T15:21:58.597Z,4.50
2018-05-31T15:24:27.012Z,4.27
2018-05-31T15:26:56.177Z,3.13
2018-05-31T15:29:24.566Z,3.93
2018-05-31T15:31:53.044Z,4.20
2018-05-31T15:34:21.547Z,4.57
2018-05-31T15:36:49.957Z,3.87
2018-05-31T15:39:19.127Z,3.30
2018-05-31T15:41:47.567Z,3.40
2018-05-31T15:44:15.972Z,3.90
2018-05-31T15:46:44.359Z,3.57
2018-05-31T15:49:12.771Z,3.10
2018-05-31T15:51:41.187Z,3.40
2018-05-31T15:54:09.615Z,3.23
2018-05-31T15:56:37.991Z,3.30
2018-05-31T15:59:06.410Z,3.50
2018-05-31T16:01:35.813Z,3.40
2018-05-31T16:04:04.213Z,3.57
2018-05-31T16:06:33.365Z,2.70
2018-05-31T16:09:01.787Z,3.10
2018-05-31T16:11:30.186Z,3.10
2018-05-31T16:13:59.380Z,3.40
2018-05-31T16:16:27.777Z,3.30
2018-05-31T16:18:56.199Z,3.33
2018-05-31T16:21:24.629Z,2.87
2018-05-31T16:23:53.834Z,3.87
2018-05-31T16:26:23.074Z,3.03
2018-05-31T16:28:51.474Z,3.43
2018-05-31T16:31:19.941Z,3.10
2018-05-31T16:33:48.325Z,3.23
2018-05-31T16:36:16.710Z,4.27
2018-05-31T16:38:45.123Z,4.17
2018-05-31T16:41:13.517Z,4.10
2018-05-31T16:43:41.937Z,4.43
2018-05-31T16:46:12.029Z,4.07
2018-05-31T16:48:40.534Z,6.47
2018-05-31T16:51:09.565Z,3.70
2018-05-31T16:53:37.960Z,7.67
2018-05-31T16:56:06.391Z,8.23
2018-05-31T16:58:35.542Z,4.30
2018-05-31T17:01:03.914Z,7.47
2018-05-31T17:03:32.340Z,3.97
2018-05-31T17:06:00.731Z,3.20
2018-05-31T17:08:29.101Z,3.67
2018-05-31T17:10:57.495Z,4.00
2018-05-31T17:13:25.894Z,16.03
2018-05-31T17:15:55.067Z,3.17
2018-05-31T17:18:23.495Z,3.63
2018-05-31T17:20:52.662Z,5.13
2018-05-31T17:23:21.066Z,3.37
2018-05-31T17:25:50.200Z,3.13
2018-05-31T17:28:18.586Z,4.27
2018-05-31T17:30:46.980Z,4.47
2018-05-31T17:33:15.376Z,5.13
2018-05-31T17:35:43.847Z,4.60
2018-05-31T17:38:12.286Z,4.40
2018-05-31T17:40:41.484Z,3.60
2018-05-31T17:43:09.959Z,4.80
2018-05-31T17:45:38.366Z,4.40
2018-05-31T17:48:07.618Z,3.93
2018-05-31T17:50:36.021Z,3.80
2018-05-31T17:53:04.535Z,4.10
2018-05-31T17:55:33.734Z,4.83
2018-05-31T17:58:02.916Z,4.90
2018-05-31T18:00:31.321Z,4.23
2018-05-31T18:02:59.785Z,4.47
2018-05-31T18:05:28.200Z,4.67
2018-05-31T18:07:57.428Z,4.40
2018-05-31T18:10:25.828Z,5.70
2018-05-31T18:12:54.216Z,4.73
2018-05-31T18:15:23.380Z,5.17
2018-05-31T18:17:51.856Z,3.73
2018-05-31T18:20:20.345Z,4.70
2018-05-31T18:22:48.735Z,4.30
2018-05-31T18:25:17.148Z,5.00
2018-05-31T18:27:45.581Z,6.07
2018-05-31T18:30:14.771Z,5.13
2018-05-31T18:32:43.141Z,5.00
2018-05-31T18:35:11.517Z,4.93
2018-05-31T18:37:40.008Z,5.90
2018-05-31T18:40:08.404Z,5.93
2018-05-31T18:42:36.793Z,6.40
2018-05-31T18:45:05.950Z,6.03
2018-05-31T18:47:34.361Z,6.40
2018-05-31T18:50:02.739Z,6.43
2018-05-31T18:52:31.114Z,6.90
2018-05-31T18:54:59.515Z,6.03
2018-05-31T18:57:27.939Z,9.67
2018-05-31T18:59:56.366Z,6.87
2018-05-31T19:02:24.757Z,5.60
2018-05-31T19:04:53.149Z,6.53
2018-05-31T19:07:21.522Z,6.70
2018-05-31T19:09:49.937Z,6.10
2018-05-31T19:12:24.426Z,6.97
2018-05-31T19:14:52.803Z,5.87
2018-05-31T19:17:21.217Z,6.40
2018-05-31T19:19:55.205Z,6.80
2018-05-31T19:22:23.579Z,6.67
2018-05-31T19:24:57.358Z,6.67
2018-05-31T19:27:25.746Z,5.80
2018-05-31T19:29:59.631Z,6.43
2018-05-31T19:32:28.053Z,5.90
2018-05-31T19:34:56.443Z,6.30
2018-05-31T19:37:24.842Z,6.80
2018-05-31T19:42:21.167Z,7.17
2018-05-31T19:44:49.586Z,7.63
2018-05-31T19:47:18.022Z,7.37
2018-05-31T19:49:46.455Z,8.80
2018-05-31T19:52:20.212Z,8.90
2018-05-31T19:54:48.647Z,10.40
2018-05-31T19:57:17.135Z,9.10
2018-05-31T19:59:51.764Z,9.53
2018-05-31T20:02:25.618Z,12.87
2018-05-31T20:04:54.105Z,13.70
2018-05-31T20:07:22.580Z,10.00
2018-05-31T20:09:51.078Z,11.50
2018-05-31T20:12:21.257Z,11.70
2018-05-31T20:14:47.867Z,9.57
2018-05-31T20:17:16.295Z,9.47
2018-05-31T20:19:45.479Z,9.90
2018-05-31T20:22:13.895Z,10.93
2018-05-31T20:24:42.383Z,9.83
2018-05-31T20:27:11.562Z,10.80
2018-05-31T20:29:40.747Z,11.40
2018-05-31T20:32:09.130Z,10.80
2018-05-31T20:34:37.610Z,10.83
2018-05-31T20:37:06.359Z,11.10
2018-05-31T20:39:34.766Z,11.67
2018-05-31T20:42:03.211Z,15.17
2018-05-31T20:44:31.945Z,12.17
2018-05-31T20:47:00.366Z,13.03
2018-05-31T20:49:29.594Z,12.20
2018-05-31T20:51:58.085Z,12.47
2018-05-31T20:54:26.497Z,13.20
2018-05-31T20:56:54.947Z,15.13
2018-05-31T20:59:23.397Z,13.47
2018-05-31T21:01:51.951Z,12.90
2018-05-31T21:04:20.363Z,13.60
2018-05-31T21:06:48.786Z,14.57
2018-05-31T21:09:17.179Z,13.33
2018-05-31T21:11:45.726Z,15.57
2018-05-31T21:14:14.066Z,15.20
2018-05-31T21:16:42.465Z,15.20
2018-05-31T21:19:10.890Z,16.50
2018-05-31T21:21:40.089Z,17.50
2018-05-31T21:24:09.293Z,15.37
2018-05-31T21:26:38.458Z,17.83
2018-05-31T21:29:06.877Z,15.63
2018-05-31T21:31:36.054Z,16.07
2018-05-31T21:34:04.447Z,17.23
2018-05-31T21:36:32.854Z,16.93
2018-05-31T21:39:02.007Z,16.73
2018-05-31T21:41:30.454Z,16.53
2018-05-31T21:43:58.889Z,15.97
2018-05-31T21:46:27.359Z,16.77
2018-05-31T21:48:55.792Z,15.70
2018-05-31T21:51:24.184Z,16.77
2018-05-31T21:53:52.601Z,16.20
2018-05-31T21:56:21.001Z,16.70
2018-05-31T21:58:49.409Z,16.13
2018-05-31T22:01:18.562Z,16.03
2018-05-31T22:03:46.977Z,16.37
2018-05-31T22:06:15.583Z,18.87
2018-05-31T22:08:44.736Z,16.53
2018-05-31T22:11:13.143Z,18.47
2018-05-31T22:13:41.559Z,18.80
2018-05-31T22:16:10.746Z,18.13
2018-05-31T22:18:39.173Z,18.57
2018-05-31T22:21:07.546Z,18.20
2018-05-31T22:23:35.973Z,18.70
2018-05-31T22:26:04.385Z,18.70
2018-05-31T22:28:33.557Z,19.80
2018-05-31T22:31:02.782Z,19.33
2018-05-31T22:33:31.186Z,17.83
2018-05-31T22:36:00.362Z,18.50
2018-05-31T22:38:28.766Z,16.13
2018-05-31T22:40:57.925Z,17.73
2018-05-31T22:43:26.340Z,16.50
2018-05-31T22:45:55.582Z,18.03
2018-05-31T22:48:24.063Z,17.63
2018-05-31T22:50:52.453Z,18.83
2018-05-31T22:53:20.850Z,17.50
2018-05-31T22:55:49.251Z,17.13
2018-05-31T22:58:17.710Z,17.90
2018-05-31T23:00:46.145Z,17.90
2018-05-31T23:03:15.299Z,19.23
2018-05-31T23:05:43.698Z,18.50
2018-05-31T23:08:12.108Z,18.33
2018-05-31T23:10:40.515Z,17.53
2018-05-31T23:13:09.662Z,19.60
2018-05-31T23:15:38.068Z,21.50
2018-05-31T23:18:06.487Z,19.83
2018-05-31T23:20:34.916Z,22.27
2018-05-31T23:23:03.337Z,23.33
2018-05-31T23:25:32.625Z,22.33
2018-05-31T23:28:01.028Z,23.00
2018-05-31T23:30:30.183Z,25.13
2018-05-31T23:32:58.590Z,23.27
2018-05-31T23:35:26.998Z,24.70
2018-05-31T23:37:56.163Z,23.60
2018-05-31T23:40:24.576Z,24.47
2018-05-31T23:42:53.727Z,23.30
2018-05-31T23:45:22.137Z,21.70
2018-05-31T23:47:50.607Z,19.93
2018-05-31T23:50:18.994Z,21.67
2018-05-31T23:52:47.411Z,22.37
2018-05-31T23:55:15.801Z,19.37
2018-05-31T23:57:44.970Z,22.30
